Alexandra, New Zealand
Current Conditions -  °F | °C
As of 9:30 AM on Saturday 29 Nov 2014 (Local Time) from NZCH Reporting Station
Scattered Clouds Scattered Clouds  
Wind Chill: 55°   Ceiling: Unl
Heat Index: 55°   Visibility: 6mi
Dew Point: 45°   Wind: 8mph
Humidity: 67%   Direction: 60°ENE
Pressure: 29.62"   Gusts: NA
Location:  45.25°S, 169.39°E
Report Text: NZCH 282130Z AUTO 06007KT 030V110 9999 FEW023/// SCT100///13/07 Q1003 NOSIG
Loading
Personal Weather Stations






























Interactive Weather Map New forecast layout! Learn more

10-Day Weather Forecast

Advertisements
Track Severe Weather on mobile